Time;durP1;ratioP1;P1;durP2;ratioP2;P2;SDS_P1;SDS_P2;PMS_P1;PMS_P2;Temp;Humidity;BMP_temperature;BMP_pressure;BME280_temperature;BME280_humidity;BME280_pressure;Samples;Min_cycle;Max_cycle;Signal;HPM_P1;HPM_P2
2023/08/27 00:02:00;;;;;;;8.48;7.68;;;12.20;99.90;;;;;;5012615;28;20303;-88
2023/08/27 00:04:26;;;;;;;9.97;8.03;;;12.80;99.90;;;;;;5021391;28;20049;-88
2023/08/27 00:06:52;;;;;;;9.90;7.93;;;13.00;99.90;;;;;;5017178;28;20300;-88
2023/08/27 00:09:18;;;;;;;11.20;9.67;;;13.10;99.90;;;;;;5014334;28;20390;-88
2023/08/27 00:11:43;;;;;;;11.67;9.20;;;13.00;99.90;;;;;;5017158;28;20052;-88
2023/08/27 00:14:09;;;;;;;11.37;8.87;;;13.00;99.90;;;;;;5007808;28;20052;-88
2023/08/27 00:16:36;;;;;;;11.73;8.50;;;13.00;99.90;;;;;;5012436;28;20045;-88
2023/08/27 00:19:05;;;;;;;;;;;12.00;99.90;;;;;;5009393;28;20308;-88
2023/08/27 00:21:31;;;;;;;8.57;7.78;;;13.00;99.90;;;;;;5041501;28;20332;-89
2023/08/27 00:24:00;;;;;;;9.05;8.07;;;13.00;99.90;;;;;;4993947;28;20072;-88
2023/08/27 00:26:26;;;;;;;13.07;9.25;;;13.00;99.90;;;;;;5000620;28;20095;-88
2023/08/27 00:28:52;;;;;;;14.97;9.47;;;12.90;99.90;;;;;;5017259;28;20041;-88
2023/08/27 00:31:17;;;;;;;9.53;8.63;;;13.00;99.90;;;;;;4999727;28;20675;-88
2023/08/27 00:33:43;;;;;;;8.50;7.63;;;13.00;99.90;;;;;;4994923;28;20084;-88
2023/08/27 00:36:09;;;;;;;8.43;7.63;;;12.00;99.90;;;;;;5000195;28;20049;-87
2023/08/27 00:38:34;;;;;;;11.47;9.27;;;13.00;99.90;;;;;;5000128;28;20041;-88
2023/08/27 00:41:00;;;;;;;10.53;8.83;;;13.00;99.90;;;;;;5000209;28;20049;-88
2023/08/27 00:43:26;;;;;;;9.40;8.13;;;13.00;99.90;;;;;;5000302;28;20045;-88
2023/08/27 00:45:52;;;;;;;11.97;8.73;;;12.70;99.90;;;;;;4984114;28;20080;-88
2023/08/27 00:48:17;;;;;;;9.27;8.23;;;13.00;99.90;;;;;;4999489;28;20060;-89
2023/08/27 00:50:44;;;;;;;11.68;8.25;;;12.50;99.90;;;;;;5016236;28;20049;-88
2023/08/27 00:53:11;;;;;;;9.65;7.63;;;13.00;99.90;;;;;;5015893;28;20046;-88
2023/08/27 00:55:37;;;;;;;10.50;8.30;;;13.00;99.90;;;;;;4999907;28;20048;-88
2023/08/27 00:58:04;;;;;;;10.07;8.50;;;12.90;99.90;;;;;;4999487;28;20061;-88
2023/08/27 01:00:34;;;;;;;8.50;7.68;;;12.90;99.90;;;;;;4999861;28;20042;-88
2023/08/27 01:03:00;;;;;;;11.90;8.98;;;12.90;99.90;;;;;;5019600;28;20551;-88
2023/08/27 01:05:27;;;;;;;10.07;9.00;;;12.90;99.90;;;;;;5017485;28;20136;-88
2023/08/27 01:07:58;;;;;;;12.80;9.00;;;12.90;99.90;;;;;;4999467;28;20066;-88
2023/08/27 01:10:40;;;;;;;10.18;9.18;;;12.90;99.90;;;;;;5029573;28;20068;-88
2023/08/27 01:13:14;;;;;;;12.60;9.23;;;12.90;99.90;;;;;;5015978;28;20045;-88
2023/08/27 01:15:40;;;;;;;13.98;9.77;;;12.80;99.90;;;;;;5001210;28;20079;-88
2023/08/27 01:18:07;;;;;;;9.50;8.50;;;12.80;99.90;;;;;;5005667;28;20053;-88
2023/08/27 01:20:33;;;;;;;9.10;8.25;;;12.80;99.90;;;;;;5014954;28;20131;-89
2023/08/27 01:22:59;;;;;;;8.93;8.13;;;12.80;99.90;;;;;;5018512;28;20164;-88
2023/08/27 01:25:45;;;;;;;12.33;9.90;;;12.70;99.90;;;;;;5016696;28;20045;-88
2023/08/27 01:28:22;;;;;;;13.65;9.63;;;12.90;99.90;;;;;;5007050;28;20110;-88
2023/08/27 01:30:55;;;;;;;10.77;9.02;;;12.70;99.90;;;;;;5018358;28;20049;-88
2023/08/27 01:33:26;;;;;;;11.15;9.60;;;12.80;99.90;;;;;;5036635;28;20411;-88
2023/08/27 01:35:52;;;;;;;9.95;8.95;;;12.90;99.90;;;;;;5021245;28;20045;-88
2023/08/27 01:38:18;;;;;;;12.70;9.77;;;12.70;99.90;;;;;;5000522;28;20049;-88
2023/08/27 01:40:44;;;;;;;11.70;10.43;;;12.80;99.90;;;;;;5007465;28;20404;-88
2023/08/27 01:43:10;;;;;;;11.07;8.87;;;12.80;99.90;;;;;;5005375;28;20053;-88
2023/08/27 01:45:35;;;;;;;10.90;9.80;;;12.80;99.90;;;;;;5019085;28;20045;-88
2023/08/27 01:48:01;;;;;;;11.65;10.52;;;12.80;99.90;;;;;;5019315;28;20064;-88
2023/08/27 01:50:27;;;;;;;13.30;9.07;;;12.00;99.90;;;;;;5008780;28;20081;-88
2023/08/27 01:52:53;;;;;;;11.70;9.03;;;12.80;99.90;;;;;;5019641;28;20072;-88
2023/08/27 01:55:18;;;;;;;11.40;8.82;;;11.80;99.90;;;;;;5003340;28;20500;-89
2023/08/27 01:57:49;;;;;;;13.77;9.17;;;12.70;99.90;;;;;;5004017;28;20038;-87
2023/08/27 02:00:20;;;;;;;11.38;9.15;;;12.80;99.90;;;;;;5034888;28;20126;-88
2023/08/27 02:02:46;;;;;;;9.98;9.00;;;12.70;99.90;;;;;;5022352;28;20052;-88
2023/08/27 02:05:12;;;;;;;10.93;9.82;;;12.00;99.90;;;;;;5006887;28;20384;-88
2023/08/27 02:07:39;;;;;;;9.57;8.50;;;11.70;99.90;;;;;;5005921;28;20042;-88
2023/08/27 02:10:08;;;;;;;9.93;8.98;;;12.80;99.90;;;;;;5020497;28;20284;-86
2023/08/27 02:12:35;;;;;;;17.58;9.60;;;12.80;99.90;;;;;;5015850;28;20597;-88
2023/08/27 02:15:07;;;;;;;9.60;8.52;;;12.70;99.90;;;;;;5010631;28;20091;-88
2023/08/27 02:17:33;;;;;;;11.35;9.18;;;12.50;99.90;;;;;;5021767;28;20403;-88
2023/08/27 02:20:06;;;;;;;13.13;10.25;;;12.80;99.90;;;;;;4996707;28;20404;-88
2023/08/27 02:22:35;;;;;;;13.85;9.77;;;12.80;99.90;;;;;;4997560;28;20072;-88
2023/08/27 02:25:00;;;;;;;10.77;9.68;;;12.80;99.90;;;;;;4990387;28;20091;-88
2023/08/27 02:27:26;;;;;;;9.67;8.47;;;12.70;99.90;;;;;;5007061;28;20044;-88
2023/08/27 02:29:52;;;;;;;10.73;8.93;;;12.70;99.90;;;;;;4999339;28;20049;-88
2023/08/27 02:32:21;;;;;;;9.25;8.05;;;13.20;99.90;;;;;;5001756;28;20052;-88
2023/08/27 02:34:49;;;;;;;10.85;7.90;;;12.70;99.90;;;;;;5037827;28;20510;-88
2023/08/27 02:37:15;;;;;;;10.75;9.65;;;12.70;99.90;;;;;;5002383;28;20080;-88
2023/08/27 02:39:41;;;;;;;14.70;8.30;;;12.70;99.90;;;;;;5002321;28;20396;-88
2023/08/27 02:42:07;;;;;;;13.67;8.83;;;12.70;99.90;;;;;;5017257;28;20119;-88
2023/08/27 02:44:34;;;;;;;9.05;8.25;;;12.70;99.90;;;;;;5020767;28;20071;-88
2023/08/27 02:47:03;;;;;;;9.88;8.77;;;12.70;99.90;;;;;;5007045;28;20053;-88
2023/08/27 02:49:28;;;;;;;13.43;9.25;;;12.70;99.90;;;;;;5002099;28;20079;-89
2023/08/27 02:51:54;;;;;;;9.70;8.43;;;12.70;99.90;;;;;;4997144;28;20041;-88
2023/08/27 02:54:20;;;;;;;11.43;10.30;;;12.60;99.90;;;;;;4985888;28;20041;-88
2023/08/27 02:56:46;;;;;;;10.03;9.03;;;11.60;99.90;;;;;;5007736;28;20371;-88
2023/08/27 02:59:12;;;;;;;9.40;8.30;;;12.60;99.90;;;;;;5001707;28;20132;-88
2023/08/27 03:01:38;;;;;;;10.98;9.88;;;11.80;99.90;;;;;;5009233;28;20457;-88
2023/08/27 03:04:03;;;;;;;13.57;10.95;;;12.60;99.90;;;;;;5001850;28;20037;-87
2023/08/27 03:06:29;;;;;;;12.13;10.27;;;12.60;99.90;;;;;;5022503;28;20104;-89
2023/08/27 03:08:55;;;;;;;14.30;10.87;;;12.50;99.90;;;;;;5012571;28;20051;-88
2023/08/27 03:11:21;;;;;;;17.13;10.13;;;12.50;99.90;;;;;;5009782;28;20080;-88
2023/08/27 03:13:48;;;;;;;14.60;11.60;;;12.40;99.90;;;;;;4986905;28;20132;-88
2023/08/27 03:16:14;;;;;;;16.85;12.02;;;12.40;99.90;;;;;;5017881;28;20041;-88
2023/08/27 03:18:40;;;;;;;12.13;10.47;;;12.40;99.90;;;;;;5017286;28;20083;-88
2023/08/27 03:21:05;;;;;;;15.07;10.73;;;12.50;99.90;;;;;;5016884;28;20045;-88
2023/08/27 03:23:35;;;;;;;13.40;10.98;;;12.50;99.90;;;;;;5000941;28;20045;-88
2023/08/27 03:26:01;;;;;;;9.93;9.02;;;12.50;99.90;;;;;;5002977;28;20503;-88
2023/08/27 03:28:30;;;;;;;12.10;10.90;;;12.40;99.90;;;;;;5011456;28;20060;-88
2023/08/27 03:30:55;;;;;;;11.30;10.10;;;12.40;99.90;;;;;;5005292;28;20076;-88
2023/08/27 03:33:21;;;;;;;11.63;10.43;;;12.50;99.90;;;;;;5009796;28;20087;-88
2023/08/27 03:35:52;;;;;;;11.90;10.73;;;12.50;99.90;;;;;;5027268;28;20443;-88
2023/08/27 03:38:18;;;;;;;13.93;11.57;;;12.50;99.90;;;;;;5020771;28;20511;-88
2023/08/27 03:40:49;;;;;;;16.17;12.65;;;12.50;99.90;;;;;;5011069;28;20076;-88
2023/08/27 03:43:15;;;;;;;13.68;12.27;;;12.50;99.90;;;;;;5030823;28;20099;-88
2023/08/27 03:45:41;;;;;;;17.05;12.15;;;12.50;99.90;;;;;;5032426;28;20479;-89
2023/08/27 03:48:07;;;;;;;12.38;11.05;;;12.60;99.90;;;;;;5010434;28;20132;-88
2023/08/27 03:50:34;;;;;;;12.17;10.83;;;12.60;99.90;;;;;;5010210;28;20128;-88
2023/08/27 03:53:00;;;;;;;12.02;10.05;;;12.60;99.90;;;;;;5015491;28;20403;-88
2023/08/27 03:55:25;;;;;;;12.23;10.57;;;12.60;99.90;;;;;;5022408;28;20037;-88
2023/08/27 03:57:51;;;;;;;13.93;10.77;;;12.60;99.90;;;;;;5007594;28;20581;-88
2023/08/27 04:00:19;;;;;;;13.33;11.80;;;12.70;99.90;;;;;;5008575;28;20435;-88
2023/08/27 04:02:45;;;;;;;11.57;10.48;;;12.70;99.90;;;;;;5017255;28;20038;-88
2023/08/27 04:05:11;;;;;;;12.97;10.30;;;12.70;99.90;;;;;;5018809;28;20049;-88
2023/08/27 04:07:37;;;;;;;14.88;12.23;;;12.70;99.90;;;;;;4999210;28;20037;-88
2023/08/27 04:10:04;;;;;;;15.47;11.93;;;12.80;99.90;;;;;;5020452;28;20067;-88
2023/08/27 04:12:33;;;;;;;;;;;12.80;99.90;;;;;;5011393;28;20419;-88
2023/08/27 04:14:59;;;;;;;12.35;10.18;;;12.70;99.90;;;;;;5013159;28;20015;-88
2023/08/27 04:17:24;;;;;;;13.10;11.35;;;12.60;99.90;;;;;;5013479;28;20132;-89
2023/08/27 04:19:52;;;;;;;11.88;10.68;;;12.70;99.90;;;;;;5016581;28;20044;-88
2023/08/27 04:22:18;;;;;;;12.82;10.82;;;12.80;99.90;;;;;;5006878;28;20049;-88
2023/08/27 04:24:44;;;;;;;12.95;11.13;;;11.90;99.90;;;;;;4984303;28;20045;-89
2023/08/27 04:27:10;;;;;;;13.85;9.15;;;12.70;99.90;;;;;;5046466;28;20037;-88
2023/08/27 04:29:36;;;;;;;15.40;11.55;;;12.70;99.90;;;;;;5018464;28;20103;-88
2023/08/27 04:32:07;;;;;;;12.52;9.93;;;12.70;99.90;;;;;;5031165;28;20048;-88
2023/08/27 04:34:33;;;;;;;13.18;11.68;;;12.50;99.90;;;;;;5019753;28;20057;-88
2023/08/27 04:37:00;;;;;;;10.17;9.27;;;12.50;99.90;;;;;;5018517;28;20094;-89
2023/08/27 04:39:27;;;;;;;13.05;11.65;;;12.50;99.90;;;;;;5016341;28;20387;-88
2023/08/27 04:41:53;;;;;;;11.57;10.57;;;12.50;99.90;;;;;;5015851;28;20495;-88
2023/08/27 04:44:18;;;;;;;11.93;10.82;;;12.50;99.90;;;;;;5000857;28;20072;-88
2023/08/27 04:46:44;;;;;;;11.97;10.77;;;12.40;99.90;;;;;;5000224;28;20046;-88
2023/08/27 04:49:10;;;;;;;13.37;12.07;;;12.30;99.90;;;;;;5000322;28;20350;-88
2023/08/27 04:51:36;;;;;;;12.80;10.93;;;12.30;99.90;;;;;;4999793;28;20389;-88
2023/08/27 04:54:02;;;;;;;12.23;10.30;;;12.40;99.90;;;;;;4999153;28;20049;-88
2023/08/27 04:56:28;;;;;;;11.07;9.90;;;12.30;99.90;;;;;;5000468;28;20041;-88
2023/08/27 04:58:54;;;;;;;11.30;10.23;;;12.40;99.90;;;;;;4999950;28;20442;-88
2023/08/27 05:01:20;;;;;;;15.23;11.63;;;12.50;99.90;;;;;;5010023;28;20044;-88
2023/08/27 05:03:45;;;;;;;12.00;10.73;;;12.40;99.90;;;;;;5016644;28;20298;-88
2023/08/27 05:06:11;;;;;;;11.83;10.70;;;12.40;99.90;;;;;;4986230;28;20041;-88
2023/08/27 05:08:37;;;;;;;12.50;10.00;;;12.30;99.90;;;;;;5000799;28;20045;-89
2023/08/27 05:11:03;;;;;;;11.23;10.17;;;12.60;99.90;;;;;;5017902;28;20049;-89
2023/08/27 05:13:28;;;;;;;11.60;10.50;;;12.40;99.90;;;;;;5035789;28;20053;-88
2023/08/27 05:15:59;;;;;;;11.93;10.90;;;12.50;99.90;;;;;;5004541;28;20163;-89
2023/08/27 05:18:25;;;;;;;10.70;9.82;;;12.80;99.90;;;;;;5029237;28;20398;-89
2023/08/27 05:20:51;;;;;;;14.80;11.63;;;12.40;99.90;;;;;;5032072;28;20105;-89
2023/08/27 05:23:22;;;;;;;12.60;11.40;;;12.50;99.90;;;;;;5019833;28;20299;-89
2023/08/27 05:25:48;;;;;;;13.50;11.60;;;12.60;99.90;;;;;;5001118;28;20056;-88
2023/08/27 05:28:14;;;;;;;13.30;11.97;;;12.50;99.90;;;;;;5016690;28;20045;-88
2023/08/27 05:30:44;;;;;;;12.07;10.83;;;12.60;99.90;;;;;;5019048;28;20292;-88
2023/08/27 05:33:10;;;;;;;13.23;11.32;;;12.60;99.90;;;;;;5034612;28;20130;-89
2023/08/27 05:35:35;;;;;;;13.83;12.13;;;12.70;99.90;;;;;;5015688;28;20045;-89
2023/08/27 05:38:01;;;;;;;12.07;10.83;;;12.80;99.90;;;;;;4994800;28;20056;-92
2023/08/27 05:40:27;;;;;;;10.65;9.52;;;12.80;99.90;;;;;;4998958;28;20045;-92
2023/08/27 05:42:53;;;;;;;12.73;11.33;;;12.90;99.90;;;;;;5012426;28;20476;-91
2023/08/27 05:45:19;;;;;;;12.13;10.27;;;13.00;99.90;;;;;;5008405;28;20483;-91
2023/08/27 05:47:44;;;;;;;10.27;9.13;;;13.30;99.90;;;;;;5032581;28;20303;-94
2023/08/27 05:50:10;;;;;;;11.00;9.95;;;13.70;99.90;;;;;;5035366;28;20105;-89
2023/08/27 05:52:36;;;;;;;10.07;9.17;;;14.10;99.90;;;;;;5022208;28;20188;-88
2023/08/27 05:55:02;;;;;;;9.45;8.52;;;13.60;99.90;;;;;;5051398;28;20045;-88
2023/08/27 05:57:28;;;;;;;9.82;8.80;;;14.70;99.90;;;;;;5032058;28;20044;-89
2023/08/27 05:59:58;;;;;;;7.90;7.17;;;14.80;99.90;;;;;;5027915;28;20128;-86
2023/08/27 06:02:24;;;;;;;8.15;7.32;;;14.80;99.90;;;;;;5022978;28;20522;-84
2023/08/27 06:04:49;;;;;;;10.17;8.63;;;14.70;99.90;;;;;;5015800;28;20046;-86
2023/08/27 06:07:15;;;;;;;10.02;9.18;;;14.60;99.90;;;;;;5006776;28;20041;-87
2023/08/27 06:09:41;;;;;;;9.13;8.32;;;14.70;99.90;;;;;;5018727;28;20041;-85
2023/08/27 06:12:07;;;;;;;8.93;8.02;;;14.60;99.90;;;;;;5028884;28;20101;-83
2023/08/27 06:14:33;;;;;;;10.30;9.20;;;14.60;99.90;;;;;;5021141;28;20424;-85
2023/08/27 06:16:59;;;;;;;10.32;8.88;;;14.40;99.90;;;;;;5037359;28;20506;-82
2023/08/27 06:19:24;;;;;;;10.87;8.80;;;14.30;99.90;;;;;;5032281;28;20045;-88
2023/08/27 06:21:50;;;;;;;11.10;9.57;;;14.10;99.90;;;;;;5014337;28;20068;-88
2023/08/27 06:24:16;;;;;;;10.67;9.57;;;14.10;99.90;;;;;;5038216;28;20547;-87
2023/08/27 06:26:41;;;;;;;11.03;9.93;;;14.00;99.90;;;;;;5036402;28;20303;-86
2023/08/27 06:29:07;;;;;;;13.07;8.43;;;14.00;99.90;;;;;;5009423;28;20053;-86
2023/08/27 06:31:33;;;;;;;12.00;10.47;;;13.90;99.90;;;;;;5011135;28;20393;-87
2023/08/27 06:33:59;;;;;;;12.00;10.17;;;13.80;99.90;;;;;;5048746;28;20053;-86
2023/08/27 06:36:24;;;;;;;12.37;10.93;;;13.70;99.90;;;;;;5032550;28;20367;-85
2023/08/27 06:38:50;;;;;;;11.23;9.93;;;13.00;99.90;;;;;;5036451;28;20101;-85
2023/08/27 06:41:16;;;;;;;13.23;10.17;;;13.60;99.90;;;;;;5050972;28;20328;-85
2023/08/27 06:43:41;;;;;;;11.47;9.67;;;13.60;99.90;;;;;;4994153;28;20530;-85
2023/08/27 06:46:08;;;;;;;10.53;9.43;;;13.60;99.90;;;;;;5038384;28;20064;-85
2023/08/27 06:48:34;;;;;;;15.10;9.95;;;13.60;99.90;;;;;;5025646;28;20041;-86
2023/08/27 06:51:00;;;;;;;14.00;10.10;;;13.60;99.90;;;;;;5044377;28;20037;-85
2023/08/27 06:53:25;;;;;;;14.43;10.13;;;13.50;99.90;;;;;;5040218;28;20048;-86
2023/08/27 06:55:53;;;;;;;10.30;9.30;;;13.50;99.90;;;;;;5005125;28;20096;-90
2023/08/27 06:58:19;;;;;;;11.07;9.52;;;13.50;99.90;;;;;;5018078;28;20042;-87
2023/08/27 07:00:45;;;;;;;11.07;9.60;;;13.50;99.90;;;;;;5018504;28;20373;-84
2023/08/27 07:03:11;;;;;;;12.90;9.43;;;13.50;99.90;;;;;;5052548;28;20037;-85
2023/08/27 07:05:36;;;;;;;11.90;8.57;;;13.50;99.90;;;;;;5046674;28;20049;-85
2023/08/27 07:08:04;;;;;;;8.37;7.50;;;13.50;99.90;;;;;;5043119;28;20558;-83
2023/08/27 07:10:29;;;;;;;10.15;7.28;;;13.50;99.90;;;;;;5033814;28;20052;-84
2023/08/27 07:12:55;;;;;;;10.60;7.97;;;13.50;99.90;;;;;;5034855;28;20037;-86
2023/08/27 07:15:21;;;;;;;10.27;9.20;;;13.50;99.90;;;;;;5038617;28;20045;-86
2023/08/27 07:17:46;;;;;;;12.00;9.90;;;13.50;99.90;;;;;;5033905;28;20513;-88
2023/08/27 07:20:13;;;;;;;9.07;7.97;;;13.50;99.90;;;;;;5028135;28;20048;-85
2023/08/27 07:22:39;;;;;;;;;;;13.50;99.90;;;;;;5013615;28;20346;-87
2023/08/27 07:25:09;;;;;;;9.75;8.75;;;13.50;99.90;;;;;;5035027;28;19964;-84
2023/08/27 07:27:35;;;;;;;10.48;9.48;;;13.50;99.90;;;;;;5024475;28;20053;-86
2023/08/27 07:30:01;;;;;;;13.23;9.23;;;13.50;99.90;;;;;;5004920;28;20057;-87
2023/08/27 07:32:27;;;;;;;12.70;9.80;;;13.50;99.90;;;;;;5046494;28;20120;-84
2023/08/27 07:34:53;;;;;;;10.53;8.53;;;13.50;99.90;;;;;;5029519;28;20060;-83
2023/08/27 07:37:18;;;;;;;9.23;8.30;;;13.50;99.90;;;;;;5035329;28;20041;-83
2023/08/27 07:39:44;;;;;;;9.33;8.43;;;13.50;99.90;;;;;;5035428;28;20471;-83
2023/08/27 07:42:09;;;;;;;9.13;8.13;;;13.50;99.90;;;;;;5053424;28;20377;-82
2023/08/27 07:44:35;;;;;;;9.67;7.80;;;13.50;99.90;;;;;;5053738;28;20044;-83
2023/08/27 07:47:01;;;;;;;9.47;8.53;;;13.60;99.90;;;;;;5053132;28;20053;-82
2023/08/27 07:49:26;;;;;;;8.97;7.37;;;13.70;99.90;;;;;;5035217;28;20045;-83
2023/08/27 07:51:53;;;;;;;7.53;6.73;;;13.80;99.90;;;;;;5003167;28;20063;-83
2023/08/27 07:54:19;;;;;;;8.93;6.78;;;13.90;99.90;;;;;;5018334;28;20041;-83
2023/08/27 07:56:44;;;;;;;7.15;6.30;;;14.20;99.90;;;;;;5019711;28;20365;-83
2023/08/27 07:59:10;;;;;;;7.23;5.67;;;14.60;99.90;;;;;;5035088;28;20446;-83
2023/08/27 08:01:36;;;;;;;5.80;5.00;;;15.00;99.90;;;;;;5035950;28;20045;-83
2023/08/27 08:04:03;;;;;;;7.13;5.83;;;15.20;99.90;;;;;;5035931;28;20048;-83
2023/08/27 08:06:28;;;;;;;5.05;4.57;;;15.30;99.90;;;;;;5035152;28;20041;-83
2023/08/27 08:08:54;;;;;;;5.50;5.00;;;15.50;99.90;;;;;;5002670;28;20047;-83
2023/08/27 08:11:20;;;;;;;4.93;4.50;;;15.70;99.90;;;;;;5035058;28;20127;-83
2023/08/27 08:13:46;;;;;;;4.80;4.30;;;15.90;99.90;;;;;;5035698;28;20103;-83
2023/08/27 08:16:14;;;;;;;5.68;5.15;;;16.00;99.90;;;;;;5052602;28;20287;-83
2023/08/27 08:18:40;;;;;;;4.35;3.90;;;16.20;99.90;;;;;;5053551;28;20090;-83
2023/08/27 08:21:05;;;;;;;4.87;4.43;;;16.30;99.90;;;;;;5002615;28;20044;-83
2023/08/27 08:23:31;;;;;;;9.33;4.20;;;16.30;99.90;;;;;;5052409;28;20288;-83
2023/08/27 08:25:59;;;;;;;6.80;4.43;;;16.40;99.90;;;;;;5035122;28;20425;-82
2023/08/27 08:28:25;;;;;;;6.57;4.00;;;16.40;99.30;;;;;;5034061;28;20053;-83
2023/08/27 08:30:51;;;;;;;5.32;4.55;;;16.50;98.60;;;;;;5052946;28;20128;-82
2023/08/27 08:33:17;;;;;;;4.80;4.40;;;16.60;97.60;;;;;;5052014;28;20144;-83
2023/08/27 08:35:44;;;;;;;5.05;4.57;;;16.60;97.50;;;;;;5034797;28;20525;-83
2023/08/27 08:38:09;;;;;;;;;;;16.70;97.50;;;;;;5035143;28;20079;-82
2023/08/27 08:40:41;;;;;;;5.30;4.43;;;16.80;93.20;;;;;;5017512;28;20307;-83
2023/08/27 08:43:10;;;;;;;5.85;5.28;;;16.80;96.30;;;;;;5052680;28;20045;-83
2023/08/27 08:45:49;;;;;;;5.95;5.05;;;17.00;96.70;;;;;;5052277;28;20045;-83
2023/08/27 08:48:22;;;;;;;5.45;4.13;;;17.10;96.10;;;;;;5052141;28;20107;-83
2023/08/27 08:50:52;;;;;;;6.43;4.63;;;17.30;94.90;;;;;;5035008;28;20376;-83
2023/08/27 08:53:19;;;;;;;5.05;4.15;;;17.30;93.30;;;;;;5052078;28;20080;-83
2023/08/27 08:55:51;;;;;;;3.75;3.42;;;17.40;92.70;;;;;;5035122;28;20122;-82
2023/08/27 08:58:19;;;;;;;4.80;3.50;;;17.50;84.50;;;;;;5034335;28;20055;-83
2023/08/27 09:00:45;;;;;;;4.43;3.90;;;17.50;79.50;;;;;;5018237;28;20049;-83
2023/08/27 09:03:11;;;;;;;6.03;4.60;;;17.50;76.80;;;;;;5034905;28;20103;-83
2023/08/27 09:05:38;;;;;;;4.05;3.60;;;17.50;75.50;;;;;;5034620;28;20506;-83
2023/08/27 09:08:05;;;;;;;7.88;5.15;;;17.50;74.90;;;;;;4999652;28;20150;-83
2023/08/27 09:10:31;;;;;;;5.68;3.45;;;17.60;75.40;;;;;;5052615;28;20140;-83
2023/08/27 09:12:58;;;;;;;4.95;3.65;;;17.60;71.50;;;;;;5054456;28;20080;-83
2023/08/27 09:15:24;;;;;;;5.03;3.95;;;17.60;66.30;;;;;;5054236;28;20052;-83
2023/08/27 09:17:50;;;;;;;3.75;3.35;;;17.60;62.80;;;;;;5072315;28;20101;-82
2023/08/27 09:20:16;;;;;;;4.60;3.55;;;17.70;64.20;;;;;;5054565;28;20048;-83
2023/08/27 09:22:42;;;;;;;4.85;3.55;;;17.80;62.60;;;;;;5037263;28;20040;-82
2023/08/27 09:25:09;;;;;;;4.05;3.65;;;17.80;67.60;;;;;;5072209;28;20178;-81
2023/08/27 09:27:35;;;;;;;4.93;3.60;;;18.00;66.90;;;;;;5071697;28;20047;-82
2023/08/27 09:30:02;;;;;;;;;;;18.10;62.90;;;;;;5072797;28;20052;-82
2023/08/27 09:32:29;;;;;;;3.80;3.47;;;18.20;51.80;;;;;;5053799;28;20386;-82
2023/08/27 09:35:02;;;;;;;;;;;18.30;63.00;;;;;;5054627;28;20518;-81
2023/08/27 09:37:28;;;;;;;3.90;3.33;;;18.60;46.20;;;;;;5053968;28;19928;-82
2023/08/27 09:39:55;;;;;;;3.72;2.50;;;18.40;57.30;;;;;;5071849;28;20137;-82
2023/08/27 09:42:22;;;;;;;3.47;2.72;;;18.40;44.80;;;;;;5075558;28;20052;-84
2023/08/27 09:44:54;;;;;;;3.28;2.40;;;18.40;29.50;;;;;;5058165;28;20051;-82
2023/08/27 09:47:31;;;;;;;4.50;2.83;;;18.30;26.90;;;;;;5057893;28;20041;-81
2023/08/27 09:49:57;;;;;;;4.18;3.88;;;18.30;17.20;;;;;;5076063;28;20087;-81
2023/08/27 09:52:24;;;;;;;3.40;2.83;;;18.30;22.10;;;;;;5025113;28;20490;-83
2023/08/27 09:54:51;;;;;;;2.78;2.58;;;18.40;23.40;;;;;;5075650;28;20050;-81
2023/08/27 09:57:19;;;;;;;3.60;3.22;;;18.60;22.60;;;;;;5075826;28;20078;-81
2023/08/27 09:59:46;;;;;;;3.15;2.85;;;18.70;19.80;;;;;;5040847;28;20086;-82
2023/08/27 10:02:18;;;;;;;4.47;3.35;;;18.70;18.30;;;;;;5041166;28;20064;-81
2023/08/27 10:04:51;;;;;;;5.88;3.75;;;18.70;6.80;;;;;;5040708;28;20105;-81
2023/08/27 10:07:17;;;;;;;4.07;3.20;;;18.60;4.50;;;;;;5041104;28;20045;-81
2023/08/27 10:09:43;;;;;;;4.10;2.90;;;18.50;9.50;;;;;;5052876;28;20056;-82
2023/08/27 10:12:11;;;;;;;3.75;2.60;;;18.50;13.50;;;;;;5058286;28;20478;-82
2023/08/27 10:14:41;;;;;;;3.50;2.67;;;18.50;11.30;;;;;;5040880;28;20094;-82
2023/08/27 10:17:08;;;;;;;3.15;2.85;;;18.50;4.20;;;;;;5041168;28;20135;-81
2023/08/27 10:19:35;;;;;;;5.20;3.05;;;18.40;1.00;;;;;;5057141;28;20082;-82
2023/08/27 10:22:03;;;;;;;3.35;2.40;;;18.30;1.00;;;;;;5057408;28;20048;-82
2023/08/27 10:24:30;;;;;;;3.92;2.88;;;18.10;1.00;;;;;;5052604;28;20395;-82
2023/08/27 10:27:03;;;;;;;4.93;3.20;;;18.40;10.20;;;;;;5075182;28;20044;-81
2023/08/27 10:29:30;;;;;;;3.30;2.70;;;18.50;1.00;;;;;;5056967;28;20045;-81
2023/08/27 10:31:56;;;;;;;5.20;2.83;;;18.50;1.00;;;;;;5075898;28;20060;-81
2023/08/27 10:34:28;;;;;;;3.30;3.00;;;18.40;1.00;;;;;;5075978;28;20122;-81
2023/08/27 10:36:58;;;;;;;3.95;3.05;;;18.30;1.00;;;;;;5075457;28;20045;-82
2023/08/27 10:39:29;;;;;;;3.38;3.08;;;18.40;1.00;;;;;;5057651;28;20045;-81
2023/08/27 10:41:54;;;;;;;4.03;2.78;;;18.40;1.00;;;;;;5077113;28;20083;-81
2023/08/27 10:44:22;;;;;;;5.05;3.35;;;18.40;1.00;;;;;;5051471;28;20068;-81
2023/08/27 10:47:17;;;;;;;4.25;3.15;;;18.50;1.00;;;;;;5057557;28;20088;-81
2023/08/27 10:49:48;;;;;;;5.15;3.55;;;18.60;2.60;;;;;;5059401;28;20049;-80
2023/08/27 10:52:18;;;;;;;4.00;3.10;;;18.70;1.00;;;;;;5059307;28;20056;-81
2023/08/27 10:54:48;;;;;;;3.90;3.50;;;18.60;1.00;;;;;;5057669;28;20081;-82
2023/08/27 10:57:17;;;;;;;5.00;4.18;;;18.50;1.00;;;;;;5077046;28;20128;-81
2023/08/27 10:59:43;;;;;;;4.30;3.95;;;18.40;1.00;;;;;;5058392;28;20046;-82
2023/08/27 11:02:09;;;;;;;6.43;4.25;;;18.30;1.00;;;;;;5042774;28;20131;-81
2023/08/27 11:04:43;;;;;;;7.78;4.43;;;18.20;1.00;;;;;;5076109;28;20037;-82
2023/08/27 11:07:17;;;;;;;4.05;3.70;;;18.20;1.00;;;;;;5042317;28;20099;-81
2023/08/27 11:09:47;;;;;;;5.45;3.78;;;18.00;10.30;;;;;;5070470;28;20120;-81
2023/08/27 11:12:28;;;;;;;6.18;4.20;;;17.90;14.80;;;;;;5074891;28;20095;-81
2023/08/27 11:14:54;;;;;;;6.38;4.35;;;17.90;19.60;;;;;;5058695;28;20060;-81
2023/08/27 11:17:28;;;;;;;11.18;5.50;;;17.70;26.80;;;;;;5076244;28;20101;-82
2023/08/27 11:19:57;;;;;;;5.28;4.35;;;17.60;28.60;;;;;;5040959;28;20102;-82
2023/08/27 11:22:23;;;;;;;4.68;3.00;;;17.30;31.40;;;;;;5057281;28;20094;-82
2023/08/27 11:24:54;;;;;;;4.38;3.97;;;17.10;30.40;;;;;;5074184;28;20163;-82
2023/08/27 11:27:28;;;;;;;4.63;3.75;;;16.90;42.00;;;;;;5058215;28;20051;-81
2023/08/27 11:29:57;;;;;;;5.25;3.75;;;16.80;49.80;;;;;;5074885;28;20055;-81
2023/08/27 11:32:23;;;;;;;5.05;3.22;;;16.70;52.70;;;;;;5074867;28;20052;-82
2023/08/27 11:34:51;;;;;;;2.85;2.30;;;16.70;56.10;;;;;;5048546;28;20044;-82
2023/08/27 11:37:17;;;;;;;2.78;2.50;;;16.80;55.10;;;;;;5056098;28;20068;-82
2023/08/27 11:39:43;;;;;;;2.42;2.28;;;17.00;57.50;;;;;;5073603;28;20048;-82
2023/08/27 11:42:14;;;;;;;4.60;2.40;;;17.10;54.90;;;;;;5056084;28;20044;-82
2023/08/27 11:44:55;;;;;;;2.40;2.20;;;17.20;50.70;;;;;;5074682;28;20364;-82
2023/08/27 11:47:21;;;;;;;3.10;2.17;;;17.20;43.00;;;;;;5023241;28;20193;-82
2023/08/27 11:49:48;;;;;;;3.83;2.20;;;17.20;42.70;;;;;;5073419;28;20131;-82
2023/08/27 11:52:14;;;;;;;6.03;3.40;;;17.20;38.10;;;;;;5076093;28;20501;-81
2023/08/27 11:54:42;;;;;;;3.83;2.88;;;17.10;36.40;;;;;;5073281;28;20474;-82
2023/08/27 11:57:08;;;;;;;3.53;3.22;;;17.00;37.50;;;;;;5056146;28;20053;-82
2023/08/27 11:59:33;;;;;;;4.75;3.72;;;17.00;39.80;;;;;;5056236;28;20052;-82
2023/08/27 12:02:02;;;;;;;6.90;4.72;;;17.00;41.80;;;;;;5073057;28;20481;-82
2023/08/27 12:04:28;;;;;;;7.40;5.82;;;16.90;44.70;;;;;;5051853;28;20098;-82
2023/08/27 12:06:59;;;;;;;6.13;5.55;;;16.80;48.90;;;;;;5038286;28;20048;-82
2023/08/27 12:09:27;;;;;;;5.10;4.60;;;16.70;52.00;;;;;;5054904;28;20041;-81
2023/08/27 12:11:53;;;;;;;3.33;3.03;;;16.60;50.80;;;;;;5073397;28;20110;-82
2023/08/27 12:14:24;;;;;;;4.40;3.30;;;16.50;48.80;;;;;;5055806;28;20077;-81
2023/08/27 12:16:50;;;;;;;3.63;3.33;;;16.40;45.50;;;;;;5055276;28;20087;-82
2023/08/27 12:19:19;;;;;;;;;;;16.30;48.90;;;;;;5074347;28;20494;-81
2023/08/27 12:21:53;;;;;;;5.18;4.15;;;16.10;50.70;;;;;;5055240;28;19927;-82
2023/08/27 12:24:31;;;;;;;4.88;3.42;;;16.00;55.00;;;;;;5073604;28;20040;-81
2023/08/27 12:27:16;;;;;;;6.55;2.95;;;15.80;56.70;;;;;;5054836;28;20040;-82
2023/08/27 12:29:44;;;;;;;24.00;5.47;;;15.60;45.30;;;;;;5055365;28;20445;-83
2023/08/27 12:32:14;;;;;;;3.45;3.10;;;15.30;56.10;;;;;;5065620;28;20097;-82
2023/08/27 12:34:43;;;;;;;7.18;3.75;;;14.90;52.60;;;;;;5055029;28;20178;-82
2023/08/27 12:37:10;;;;;;;4.82;3.65;;;14.70;71.60;;;;;;5072906;28;20052;-82
2023/08/27 12:39:37;;;;;;;10.20;6.10;;;14.60;86.80;;;;;;5072962;28;20052;-82
2023/08/27 12:42:03;;;;;;;8.45;6.80;;;14.80;97.20;;;;;;5038035;28;20411;-82
2023/08/27 12:44:29;;;;;;;10.75;9.65;;;15.00;99.90;;;;;;5054862;28;20051;-82